createdAt,value
2018-05-07T00:00:36.216Z,71.66
2018-05-07T00:01:46.300Z,71.63
2018-05-07T00:02:56.125Z,71.57
2018-05-07T00:04:06.251Z,71.57
2018-05-07T00:05:16.466Z,71.66
2018-05-07T00:06:26.558Z,71.76
2018-05-07T00:07:36.725Z,71.72
2018-05-07T00:08:46.008Z,71.53
2018-05-07T00:09:56.140Z,71.63
2018-05-07T00:11:06.314Z,71.63
2018-05-07T00:12:16.168Z,71.72
2018-05-07T00:13:26.262Z,71.34
2018-05-07T00:14:36.337Z,71.82
2018-05-07T00:15:46.551Z,71.63
2018-05-07T00:16:56.724Z,71.05
2018-05-07T00:18:06.534Z,71.25
2018-05-07T00:19:16.341Z,71.15
2018-05-07T00:20:26.463Z,71.34
2018-05-07T00:21:36.591Z,71.63
2018-05-07T00:22:46.657Z,71.34
2018-05-07T00:23:56.733Z,71.63
2018-05-07T00:25:06.290Z,71.53
2018-05-07T00:26:16.391Z,71.72
2018-05-07T00:27:26.478Z,71.72
2018-05-07T00:28:36.641Z,71.25
2018-05-07T00:29:46.753Z,71.25
2018-05-07T00:30:56.888Z,71.34
2018-05-07T00:32:06.968Z,71.34
2018-05-07T00:33:17.260Z,71.25
2018-05-07T00:34:27.091Z,71.15
2018-05-07T00:35:36.896Z,71.34
2018-05-07T00:36:46.962Z,71.05
2018-05-07T00:37:56.804Z,71.63
2018-05-07T00:39:06.889Z,71.4
2018-05-07T00:40:16.961Z,71.82
2018-05-07T00:41:27.031Z,71.78
2018-05-07T00:42:37.102Z,71.02
2018-05-07T00:43:47.167Z,71.59
2018-05-07T00:44:56.977Z,71.59
2018-05-07T00:46:07.069Z,71.31
2018-05-07T00:47:17.137Z,71.69
2018-05-07T00:48:27.223Z,71.5
2018-05-07T00:49:37.317Z,71.5
2018-05-07T00:50:47.208Z,71.5
2018-05-07T00:51:57.265Z,71.59
2018-05-07T00:53:07.101Z,71.59
2018-05-07T00:54:17.188Z,71.5
2018-05-07T00:55:27.271Z,71.4
2018-05-07T00:56:37.336Z,71.31
2018-05-07T00:57:47.195Z,71.59
2018-05-07T00:58:57.282Z,71.11
2018-05-07T01:00:07.372Z,71.31
2018-05-07T01:01:17.450Z,71.4
2018-05-07T01:02:27.513Z,71.11
2018-05-07T01:03:37.626Z,71.11
2018-05-07T01:04:47.435Z,71.11
2018-05-07T01:05:57.241Z,71.21
2018-05-07T01:07:07.317Z,71.02
2018-05-07T01:08:17.128Z,71.21
2018-05-07T01:09:27.190Z,71.21
2018-05-07T01:10:37.295Z,71.11
2018-05-07T01:11:47.100Z,71.11
2018-05-07T01:12:56.916Z,71.27
2018-05-07T01:14:07.009Z,70.98
2018-05-07T01:15:17.095Z,71.21
2018-05-07T01:16:27.172Z,70.83
2018-05-07T01:17:37.253Z,70.98
2018-05-07T01:18:47.049Z,71.5
2018-05-07T01:19:57.106Z,71.21
2018-05-07T01:21:06.923Z,71.11
2018-05-07T01:22:16.990Z,71.31
2018-05-07T01:23:26.792Z,71.31
2018-05-07T01:24:36.864Z,71.21
2018-05-07T01:25:46.144Z,71.27
2018-05-07T01:26:55.958Z,70.98
2018-05-07T01:28:06.040Z,71.08
2018-05-07T01:29:15.849Z,71.17
2018-05-07T01:30:25.660Z,71.17
2018-05-07T01:31:35.732Z,71.17
2018-05-07T01:32:45.807Z,71.08
2018-05-07T01:33:55.885Z,71.08
2018-05-07T01:35:05.950Z,71.27
2018-05-07T01:36:15.490Z,71.27
2018-05-07T01:37:25.028Z,71.27
2018-05-07T01:38:35.104Z,71.27
2018-05-07T01:39:44.912Z,71.17
2018-05-07T01:40:54.981Z,71.17
2018-05-07T01:42:04.529Z,71.27
2018-05-07T01:43:14.336Z,71.37
2018-05-07T01:44:24.468Z,71.27
2018-05-07T01:45:34.554Z,71.17
2018-05-07T01:46:44.353Z,70.98
2018-05-07T01:47:54.426Z,71.08
2018-05-07T01:49:04.240Z,71.08
2018-05-07T01:50:14.315Z,71.08
2018-05-07T01:51:24.385Z,70.98
2018-05-07T01:52:34.446Z,71.17
2018-05-07T01:53:44.613Z,71.17
2018-05-07T01:54:54.428Z,71.37
2018-05-07T01:56:04.509Z,71.33
2018-05-07T01:57:14.578Z,70.89
2018-05-07T01:58:24.634Z,70.89
2018-05-07T01:59:34.454Z,71.33
2018-05-07T02:00:44.256Z,71.17
2018-05-07T02:01:54.390Z,71.27
2018-05-07T02:03:04.464Z,70.95
2018-05-07T02:04:14.535Z,71.37
2018-05-07T02:05:24.632Z,70.79
2018-05-07T02:06:34.689Z,71.23
2018-05-07T02:07:44.767Z,71.23
2018-05-07T02:08:54.839Z,70.95
2018-05-07T02:10:04.124Z,71.33
2018-05-07T02:11:13.963Z,71.23
2018-05-07T02:12:24.040Z,71.14
2018-05-07T02:13:34.120Z,71.27
2018-05-07T02:14:43.932Z,71.04
2018-05-07T02:15:53.729Z,70.95
2018-05-07T02:17:03.799Z,70.95
2018-05-07T02:18:13.608Z,70.85
2018-05-07T02:19:23.461Z,70.95
2018-05-07T02:20:33.260Z,70.95
2018-05-07T02:21:43.319Z,70.95
2018-05-07T02:22:53.122Z,71.04
2018-05-07T02:24:03.197Z,70.85
2018-05-07T02:25:13.311Z,71.23
2018-05-07T02:26:23.385Z,71.14
2018-05-07T02:27:33.175Z,70.85
2018-05-07T02:28:43.010Z,71.23
2018-05-07T02:29:53.094Z,71.14
2018-05-07T02:31:03.171Z,71.33
2018-05-07T02:32:13.252Z,71.04
2018-05-07T02:33:23.339Z,70.76
2018-05-07T02:34:33.428Z,70.95
2018-05-07T02:35:43.530Z,71.23
2018-05-07T02:36:53.661Z,71.04
2018-05-07T02:38:03.477Z,71.23
2018-05-07T02:39:13.548Z,71.52
2018-05-07T02:40:23.626Z,71.04
2018-05-07T02:41:33.716Z,71.23
2018-05-07T02:42:43.840Z,70.95
2018-05-07T02:43:53.911Z,70.95
2018-05-07T02:45:04.009Z,71.23
2018-05-07T02:46:14.155Z,71.42
2018-05-07T02:47:23.968Z,71.14
2018-05-07T02:48:34.102Z,71.14
2018-05-07T02:49:44.183Z,71.23
2018-05-07T02:50:53.998Z,71.33
2018-05-07T02:52:03.802Z,71.42
2018-05-07T02:53:13.896Z,71.23
2018-05-07T02:54:24.022Z,71.01
2018-05-07T02:55:33.836Z,70.72
2018-05-07T02:56:43.651Z,71.3
2018-05-07T02:57:53.728Z,71.11
2018-05-07T02:59:03.279Z,71.11
2018-05-07T03:00:13.354Z,71.01
2018-05-07T03:01:23.424Z,70.91
2018-05-07T03:33:45.479Z,67.49
2018-05-07T03:34:55.528Z,67.58
2018-05-07T03:36:05.571Z,68.63
2018-05-07T03:37:15.655Z,69.11
2018-05-07T03:38:25.443Z,69.59
2018-05-07T03:39:35.260Z,70.01
2018-05-07T03:40:45.096Z,69.91
2018-05-07T03:41:55.153Z,70.2
2018-05-07T03:43:04.963Z,70.29
2018-05-07T03:44:15.029Z,70.29
2018-05-07T03:45:25.146Z,70.42
2018-05-07T03:46:35.232Z,70.42
2018-05-07T03:47:45.291Z,70.23
2018-05-07T03:48:55.376Z,70.36
2018-05-07T03:50:05.188Z,70.07
2018-05-07T03:51:15.299Z,70.36
2018-05-07T03:52:25.409Z,70.17
2018-05-07T03:53:35.484Z,70.5
2018-05-07T03:54:45.555Z,70.3
2018-05-07T03:55:55.643Z,70.68
2018-05-07T03:57:05.709Z,70.3
2018-05-07T03:58:15.803Z,70.15
2018-05-07T03:59:25.356Z,70.43
2018-05-07T04:00:35.430Z,70.72
2018-05-07T04:01:45.489Z,70.24
2018-05-07T04:02:55.041Z,70.15
2018-05-07T04:04:05.099Z,70.15
2018-05-07T04:05:15.182Z,70.15
2018-05-07T04:06:25.235Z,70.18
2018-05-07T04:07:35.303Z,70.18
2018-05-07T04:08:45.366Z,69.8
2018-05-07T04:09:55.444Z,69.7
2018-05-07T04:11:05.263Z,69.89
2018-05-07T04:12:15.078Z,69.89
2018-05-07T04:13:25.137Z,70.12
2018-05-07T04:14:35.228Z,70.21
2018-05-07T04:15:45.301Z,70.12
2018-05-07T04:16:55.375Z,69.93
2018-05-07T04:18:05.443Z,69.93
2018-05-07T04:19:15.250Z,70.03
2018-05-07T04:20:25.071Z,69.83
2018-05-07T04:21:34.864Z,69.2
2018-05-07T04:22:44.922Z,67.35
2018-05-07T04:23:54.991Z,67.47
2018-05-07T04:25:05.071Z,67.22
2018-05-07T04:26:15.150Z,67.61
2018-05-07T04:27:25.227Z,67.9
2018-05-07T04:28:35.326Z,68.73
2018-05-07T04:29:44.871Z,69.4
2018-05-07T04:30:54.953Z,69.01
2018-05-07T04:32:04.809Z,69.78
2018-05-07T04:33:14.875Z,69.87
2018-05-07T04:34:24.170Z,69.4
2018-05-07T04:35:34.231Z,68.82
2018-05-07T04:36:44.301Z,68.57
2018-05-07T04:37:54.366Z,67.64
2018-05-07T04:39:04.440Z,67.48
2018-05-07T04:40:14.507Z,66.49
2018-05-07T04:41:24.569Z,65.85
2018-05-07T04:42:34.728Z,65.81
2018-05-07T04:43:44.797Z,65.37
2018-05-07T04:44:54.602Z,65.2
2018-05-07T04:46:04.394Z,65.05
2018-05-07T04:47:14.466Z,64.43
2018-05-07T04:48:24.534Z,64.56
2018-05-07T04:49:34.599Z,64.79
2018-05-07T04:50:44.674Z,64.62
2018-05-07T04:51:54.734Z,64.82
2018-05-07T04:53:04.544Z,64.56
2018-05-07T04:54:14.627Z,65.34
2018-05-07T04:55:24.715Z,65.14
2018-05-07T04:56:34.796Z,65.72
2018-05-07T04:57:44.873Z,66.34
2018-05-07T04:58:54.934Z,66.3
2018-05-07T05:00:05.012Z,66.11
2018-05-07T05:01:14.824Z,66.5
2018-05-07T05:02:24.897Z,66.88
2018-05-07T05:03:34.974Z,66.98
2018-05-07T05:04:45.048Z,67.37
2018-05-07T05:05:55.130Z,66.85
2018-05-07T05:07:05.333Z,67.05
2018-05-07T05:08:15.379Z,67.63
2018-05-07T05:09:25.519Z,66.88
2018-05-07T05:10:35.586Z,67.37
2018-05-07T05:11:45.397Z,67.37
2018-05-07T05:12:55.214Z,67.66
2018-05-07T05:14:05.284Z,66.98
2018-05-07T05:15:15.086Z,66.92
2018-05-07T05:16:25.156Z,66.82
2018-05-07T05:17:34.975Z,66.43
2018-05-07T05:18:44.785Z,67.24
2018-05-07T05:19:54.870Z,66.47
2018-05-07T05:21:05.019Z,66.47
2018-05-07T05:22:15.239Z,66.85
2018-05-07T05:23:25.045Z,66.75
2018-05-07T05:24:34.889Z,66.75
2018-05-07T05:25:44.986Z,67.05
2018-05-07T05:26:54.802Z,67.02
2018-05-07T05:28:04.881Z,67.34
2018-05-07T05:29:14.985Z,67.5
2018-05-07T05:30:24.860Z,67.14
2018-05-07T05:31:34.942Z,67.34
2018-05-07T05:32:44.490Z,67.53
2018-05-07T05:33:54.568Z,67.63
2018-05-07T05:35:04.382Z,67.05
2018-05-07T05:36:14.445Z,67.34
2018-05-07T05:37:24.416Z,67.44
2018-05-07T05:38:34.570Z,67.14
2018-05-07T05:39:44.655Z,66.95
2018-05-07T05:40:54.717Z,67.14
2018-05-07T05:42:04.779Z,67.63
2018-05-07T05:43:14.835Z,67.79
2018-05-07T05:44:24.118Z,67.92
2018-05-07T05:45:33.935Z,67.98
2018-05-07T05:46:43.762Z,67.69
2018-05-07T05:47:53.845Z,67.69
2018-05-07T05:49:03.930Z,67.88
2018-05-07T05:50:13.928Z,67.79
2018-05-07T05:51:24.000Z,67.69
2018-05-07T05:52:33.549Z,68.18
2018-05-07T05:53:43.656Z,67.76
2018-05-07T05:54:53.739Z,68.37
2018-05-07T05:56:03.586Z,68.88
2018-05-07T05:57:13.786Z,70.4
2018-05-07T05:58:23.857Z,71.3
2018-05-07T05:59:33.925Z,71.16
2018-05-07T06:00:44.096Z,71.51
2018-05-07T06:01:54.171Z,71.51
2018-05-07T06:03:04.263Z,71.86
2018-05-07T06:04:14.340Z,71.58
2018-05-07T06:05:24.409Z,71.38
2018-05-07T06:06:34.484Z,71.83
2018-05-07T06:07:44.571Z,70.96
2018-05-07T06:08:54.701Z,70.86
2018-05-07T06:10:04.630Z,70.42
2018-05-07T06:11:14.706Z,70.22
2018-05-07T06:12:24.533Z,70.13
2018-05-07T06:13:34.610Z,69.84
2018-05-07T06:14:44.829Z,69.35
2018-05-07T06:15:55.834Z,69.55
2018-05-07T06:17:05.645Z,69.55
2018-05-07T06:18:15.728Z,69.55
2018-05-07T06:19:25.605Z,69.55
2018-05-07T06:20:35.703Z,69.74
2018-05-07T06:21:45.778Z,69.55
2018-05-07T06:22:55.893Z,69.55
2018-05-07T06:24:05.994Z,69.71
2018-05-07T06:25:16.083Z,69.71
2018-05-07T06:26:25.893Z,69.71
2018-05-07T06:27:35.975Z,69.61
2018-05-07T06:28:46.081Z,69.51
2018-05-07T06:29:55.894Z,69.51
2018-05-07T06:31:06.049Z,69.9
2018-05-07T06:32:16.117Z,69.61
2018-05-07T06:33:26.196Z,69.51
2018-05-07T06:34:35.803Z,69.57
2018-05-07T06:35:45.912Z,69.61
2018-05-07T06:36:55.762Z,69.67
2018-05-07T06:38:05.589Z,69.96
2018-05-07T06:39:15.685Z,69.87
2018-05-07T06:40:25.550Z,69.87
2018-05-07T06:41:35.628Z,69.19
2018-05-07T06:42:45.718Z,69.67
2018-05-07T06:43:55.579Z,69.96
2018-05-07T06:45:05.726Z,69.96
2018-05-07T06:46:16.253Z,69.77
2018-05-07T06:47:26.379Z,69.57
2018-05-07T06:48:36.451Z,69.67
2018-05-07T06:49:46.273Z,69.48
2018-05-07T06:50:56.384Z,69.57
2018-05-07T06:52:06.642Z,69.57
2018-05-07T06:53:16.906Z,69.48
2018-05-07T06:54:26.752Z,69.67
2018-05-07T06:55:36.386Z,69.67
2018-05-07T06:56:46.220Z,69.48
2018-05-07T06:57:56.088Z,69.57
2018-05-07T06:59:05.912Z,69.57
2018-05-07T07:00:15.991Z,69.38
2018-05-07T07:01:26.069Z,69.57
2018-05-07T07:02:36.383Z,69.29
2018-05-07T07:03:47.192Z,69.67
2018-05-07T07:04:57.013Z,69.67
2018-05-07T07:06:07.100Z,69.67
2018-05-07T07:07:17.180Z,69.57
2018-05-07T07:08:27.820Z,69.48
2018-05-07T07:09:39.128Z,69.67
2018-05-07T07:10:49.187Z,69.87
2018-05-07T07:11:58.736Z,69.38
2018-05-07T07:13:08.544Z,69.61
2018-05-07T07:14:18.633Z,69.9
2018-05-07T07:15:28.723Z,69.51
2018-05-07T07:16:38.816Z,70
2018-05-07T07:17:48.637Z,69.71
2018-05-07T07:18:58.451Z,69.32
2018-05-07T07:20:08.558Z,70
2018-05-07T07:21:18.393Z,69.9
2018-05-07T07:22:28.478Z,69.9
2018-05-07T07:23:38.577Z,69.74
2018-05-07T07:24:48.647Z,69.74
2018-05-07T07:25:58.725Z,70.03
2018-05-07T07:27:08.541Z,69.93
2018-05-07T07:28:18.724Z,69.74
2018-05-07T07:29:28.907Z,69.84
2018-05-07T07:30:39.008Z,69.84
2018-05-07T07:31:49.088Z,69.93
2018-05-07T07:32:59.185Z,69.84
2018-05-07T07:34:09.381Z,69.87
2018-05-07T07:35:19.445Z,69.74
2018-05-07T07:36:29.520Z,69.97
2018-05-07T07:37:39.330Z,69.97
2018-05-07T07:38:49.240Z,69.97
2018-05-07T07:40:00.771Z,69.97
2018-05-07T07:41:10.868Z,69.87
2018-05-07T07:42:20.927Z,69.97
2018-05-07T07:43:31.020Z,69.78
2018-05-07T07:44:40.987Z,69.78
2018-05-07T07:45:50.568Z,69.97
2018-05-07T07:47:00.706Z,69.97
2018-05-07T07:48:11.225Z,69.78
2018-05-07T07:49:21.476Z,69.78
2018-05-07T07:50:31.551Z,70.06
2018-05-07T07:51:41.704Z,69.29
2018-05-07T07:52:51.855Z,69.97
2018-05-07T07:54:01.390Z,69.23
2018-05-07T07:55:11.707Z,69.23
2018-05-07T07:56:22.136Z,69.23
2018-05-07T07:57:32.302Z,68.94
2018-05-07T07:58:42.536Z,69.32
2018-05-07T07:59:52.626Z,69.17
2018-05-07T08:01:02.870Z,69.07
2018-05-07T08:02:13.059Z,69.17
2018-05-07T08:03:22.890Z,69.17
2018-05-07T08:04:32.965Z,69.56
2018-05-07T08:05:43.266Z,69.46
2018-05-07T08:06:53.481Z,70.14
2018-05-07T08:08:03.562Z,70.14
2018-05-07T08:09:13.698Z,70.04
2018-05-07T08:10:23.551Z,70.04
2018-05-07T08:11:33.826Z,69.74
2018-05-07T08:12:43.956Z,69.74
2018-05-07T08:13:54.130Z,70.04
2018-05-07T08:15:04.790Z,69.74
2018-05-07T08:16:14.872Z,69.56
2018-05-07T08:17:24.959Z,69.84
2018-05-07T08:18:35.181Z,69.65
2018-05-07T08:19:45.250Z,69.84
2018-05-07T08:20:55.323Z,70.23
2018-05-07T08:22:05.527Z,69.84
2018-05-07T08:23:15.688Z,70.04
2018-05-07T08:24:26.108Z,70.04
2018-05-07T08:25:36.162Z,69.4
2018-05-07T08:26:46.553Z,69.59
2018-05-07T08:27:56.914Z,69.4
2018-05-07T08:29:07.120Z,69.3
2018-05-07T08:30:17.381Z,69.49
2018-05-07T08:31:27.786Z,69.33
2018-05-07T08:32:37.935Z,69.53
2018-05-07T08:33:48.033Z,69.53
2018-05-07T08:34:58.603Z,69.33
2018-05-07T08:36:08.418Z,69.33
2018-05-07T08:37:18.505Z,69.04
2018-05-07T08:38:28.760Z,69.53
2018-05-07T08:39:38.584Z,69.56
2018-05-07T08:40:48.648Z,69.37
2018-05-07T08:41:58.206Z,69.56
2018-05-07T08:43:08.017Z,70.2
2018-05-07T08:44:18.103Z,69.95
2018-05-07T08:45:27.947Z,69.95
2018-05-07T08:46:37.778Z,70.34
2018-05-07T08:47:47.579Z,70.14
2018-05-07T08:48:57.658Z,69.66
2018-05-07T08:50:07.503Z,69.56
2018-05-07T08:51:17.313Z,69.56
2018-05-07T08:52:27.415Z,69.66
2018-05-07T08:53:37.498Z,69.56
2018-05-07T08:54:47.305Z,69.46
2018-05-07T08:55:57.126Z,69.56
2018-05-07T08:57:06.951Z,69.56
2018-05-07T08:58:17.032Z,69.75
2018-05-07T08:59:27.112Z,69.46
2018-05-07T09:00:37.200Z,69.56
2018-05-07T09:01:47.415Z,69.59
2018-05-07T09:02:57.559Z,69.59
2018-05-07T09:04:07.648Z,69.31
2018-05-07T09:05:18.996Z,69.01
2018-05-07T09:06:29.618Z,69.31
2018-05-07T09:07:40.439Z,69.11
2018-05-07T09:08:53.024Z,69.5
2018-05-07T09:10:06.607Z,69.4
2018-05-07T09:11:20.290Z,69.59
2018-05-07T09:12:30.379Z,69.4
2018-05-07T09:13:40.636Z,69.11
2018-05-07T09:14:52.350Z,69.01
2018-05-07T09:16:05.194Z,69.15
2018-05-07T09:17:16.579Z,68.91
2018-05-07T09:18:27.651Z,69.53
2018-05-07T09:19:38.237Z,69.34
2018-05-07T09:20:49.191Z,69.34
2018-05-07T09:21:59.872Z,69.34
2018-05-07T09:23:10.642Z,69.05
2018-05-07T09:24:21.278Z,69.15
2018-05-07T09:25:31.544Z,69.34
2018-05-07T09:26:42.961Z,69.08
2018-05-07T09:27:56.690Z,69.05
2018-05-07T09:29:09.957Z,69.47
2018-05-07T09:30:24.060Z,69.34
2018-05-07T09:31:39.657Z,69.08
2018-05-07T09:32:57.459Z,69.18
2018-05-07T09:34:14.383Z,69.18
2018-05-07T09:35:33.083Z,69.08
2018-05-07T09:36:51.757Z,69.57
2018-05-07T09:38:08.493Z,69.08
2018-05-07T09:39:23.682Z,69.08
2018-05-07T09:40:38.965Z,69.6
2018-05-07T09:41:55.069Z,69.6
2018-05-07T09:43:10.197Z,69.6
2018-05-07T09:44:27.303Z,69.21
2018-05-07T09:45:42.403Z,69.41
2018-05-07T09:46:58.243Z,69.41
2018-05-07T09:48:15.258Z,69.21
2018-05-07T09:49:31.466Z,69.89
2018-05-07T09:50:46.669Z,69.7
2018-05-07T09:52:02.955Z,69.7
2018-05-07T09:53:19.929Z,69.6
2018-05-07T09:54:38.358Z,69.79
2018-05-07T09:55:54.839Z,69.31
2018-05-07T09:57:11.146Z,69.7
2018-05-07T09:58:27.308Z,69.79
2018-05-07T09:59:43.214Z,69.21
2018-05-07T10:01:00.516Z,69.41
2018-05-07T10:02:17.382Z,69.34
2018-05-07T10:03:32.772Z,69.31
2018-05-07T10:04:48.654Z,69.44
2018-05-07T10:06:04.428Z,69.34
2018-05-07T10:07:20.035Z,69.34
2018-05-07T10:08:36.293Z,69.54
2018-05-07T10:09:53.488Z,69.44
2018-05-07T10:11:10.178Z,69.54
2018-05-07T10:12:28.075Z,69.34
2018-05-07T10:13:44.417Z,69.34
2018-05-07T10:15:00.553Z,69.34
2018-05-07T10:16:16.720Z,69.34
2018-05-07T10:17:29.699Z,69.48
2018-05-07T10:18:39.795Z,69.54
2018-05-07T10:19:50.892Z,69.57
2018-05-07T10:21:06.354Z,69.67
2018-05-07T10:22:21.516Z,69.18
2018-05-07T10:23:35.511Z,69.28
2018-05-07T10:24:51.554Z,69.76
2018-05-07T10:26:10.738Z,69.28
2018-05-07T10:27:25.233Z,69.28
2018-05-07T10:28:41.129Z,69.57
2018-05-07T10:29:58.623Z,69.57
2018-05-07T10:31:17.584Z,69.32
2018-05-07T10:32:35.169Z,69.7
2018-05-07T10:33:50.368Z,69.32
2018-05-07T10:35:05.158Z,69.32
2018-05-07T10:36:20.998Z,69.22
2018-05-07T10:37:36.272Z,69.7
2018-05-07T10:38:50.297Z,69.35
2018-05-07T10:40:02.754Z,69.15
2018-05-07T10:41:17.316Z,69.25
2018-05-07T10:42:30.771Z,69.29
2018-05-07T10:43:48.569Z,68.99
2018-05-07T10:45:04.708Z,69.29
2018-05-07T10:46:20.134Z,69.87
2018-05-07T10:47:33.476Z,69.58
2018-05-07T10:48:49.015Z,69.58
2018-05-07T10:50:04.327Z,69.77
2018-05-07T10:51:23.100Z,69.58
2018-05-07T10:52:39.279Z,69.58
2018-05-07T10:53:54.657Z,69.87
2018-05-07T10:55:10.743Z,69.38
2018-05-07T10:56:25.697Z,69.38
2018-05-07T10:57:40.215Z,68.99
2018-05-07T10:58:56.729Z,69.29
2018-05-07T11:00:13.728Z,69.29
2018-05-07T11:01:28.361Z,69.38
2018-05-07T11:02:43.397Z,69.29
2018-05-07T11:03:57.724Z,69.32
2018-05-07T11:05:14.417Z,69.32
2018-05-07T11:06:28.810Z,69.32
2018-05-07T11:07:43.475Z,69.32
2018-05-07T11:08:53.783Z,69.51
2018-05-07T11:10:04.387Z,69.32
2018-05-07T11:11:16.827Z,69.32
2018-05-07T11:12:26.651Z,69.13
2018-05-07T11:13:39.009Z,69.22
2018-05-07T11:14:55.193Z,69.13
2018-05-07T11:16:10.036Z,69.13
2018-05-07T11:17:25.545Z,69.35
2018-05-07T11:18:39.786Z,69.26
2018-05-07T11:19:52.986Z,69.45
2018-05-07T11:21:07.217Z,69.16
2018-05-07T11:22:20.991Z,69.39
2018-05-07T11:23:31.079Z,69.55
2018-05-07T11:24:41.183Z,69.68
2018-05-07T11:25:51.018Z,69.74
2018-05-07T11:27:01.132Z,69.39
2018-05-07T11:28:10.745Z,69.2
2018-05-07T11:29:20.846Z,69.39
2018-05-07T11:30:30.918Z,69.1
2018-05-07T11:31:40.748Z,69.29
2018-05-07T11:32:50.575Z,69.29
2018-05-07T11:34:00.709Z,69.58
2018-05-07T11:35:10.794Z,69.81
2018-05-07T11:36:20.906Z,69.52
2018-05-07T11:37:31.021Z,69.23
2018-05-07T11:38:40.849Z,69.32
2018-05-07T11:39:50.719Z,69.52
2018-05-07T11:41:00.811Z,69.32
2018-05-07T11:42:10.903Z,69.13
2018-05-07T11:43:21.009Z,69.32
2018-05-07T11:44:31.118Z,69.13
2018-05-07T11:45:41.258Z,69.32
2018-05-07T11:46:51.363Z,69.32
2018-05-07T11:48:01.530Z,69.46
2018-05-07T11:49:11.365Z,69.65
2018-05-07T11:50:21.535Z,69.56
2018-05-07T11:51:31.621Z,68.68
2018-05-07T11:52:41.729Z,69.56
2018-05-07T11:53:51.576Z,69.46
2018-05-07T11:55:01.661Z,69.36
2018-05-07T11:56:11.767Z,69.36
2018-05-07T11:57:21.907Z,69.46
2018-05-07T11:58:32.014Z,69.17
2018-05-07T11:59:42.119Z,69.26
2018-05-07T12:00:52.205Z,69.17
2018-05-07T12:02:02.307Z,69.46
2018-05-07T12:03:12.544Z,69.56
2018-05-07T12:04:22.376Z,69.36
2018-05-07T12:05:32.484Z,69.36
2018-05-07T12:06:42.562Z,69.56
2018-05-07T12:07:52.654Z,69.56
2018-05-07T12:09:02.915Z,69.56
2018-05-07T12:10:13.268Z,69.26
2018-05-07T12:11:23.376Z,69.56
2018-05-07T12:12:33.495Z,70.04
2018-05-07T12:13:43.576Z,69.94
2018-05-07T12:22:03.222Z,69.29
2018-05-07T12:23:13.489Z,69.49
2018-05-07T12:24:23.858Z,69.29
2018-05-07T12:25:33.962Z,69.49
2018-05-07T12:26:44.040Z,69.29
2018-05-07T12:27:54.196Z,69.49
2018-05-07T12:29:04.024Z,69.49
2018-05-07T12:30:13.877Z,69.49
2018-05-07T12:31:24.155Z,69.98
2018-05-07T12:32:34.626Z,69.88
2018-05-07T12:33:44.721Z,69.98
2018-05-07T12:34:54.806Z,69.98
2018-05-07T12:36:04.638Z,69.68
2018-05-07T12:37:14.734Z,69.68
2018-05-07T12:38:24.805Z,69.94
2018-05-07T12:39:34.627Z,69.84
2018-05-07T12:40:44.702Z,69.46
2018-05-07T12:41:54.547Z,69.56
2018-05-07T12:43:04.644Z,69.56
2018-05-07T12:44:14.719Z,69.65
2018-05-07T12:45:24.816Z,69.56
2018-05-07T12:46:34.928Z,69.56
2018-05-07T12:47:44.940Z,69.49
2018-05-07T12:48:55.036Z,69.2
2018-05-07T12:50:05.113Z,69.49
2018-05-07T12:51:15.217Z,69.29
2018-05-07T12:52:24.786Z,69.68
2018-05-07T12:53:35.101Z,69.68
2018-05-07T12:54:44.943Z,69.49
2018-05-07T12:55:55.037Z,69.2
2018-05-07T12:57:05.134Z,69.49
2018-05-07T12:58:15.234Z,69.59
2018-05-07T12:59:25.354Z,69.49
2018-05-07T13:00:35.190Z,69.62
2018-05-07T13:01:45.273Z,69.68
2018-05-07T13:02:55.421Z,69.2
2018-05-07T13:04:05.258Z,69.49
2018-05-07T13:05:15.350Z,69.49
2018-05-07T13:06:25.214Z,69.98
2018-05-07T13:07:34.508Z,69.88
2018-05-07T13:08:44.385Z,69.88
2018-05-07T13:09:54.501Z,69.68
2018-05-07T13:11:04.598Z,69.88
2018-05-07T13:12:14.444Z,69.59
2018-05-07T13:13:24.548Z,69.59
2018-05-07T13:14:34.378Z,69.78
2018-05-07T13:15:44.563Z,69.88
2018-05-07T13:16:54.672Z,69.59
2018-05-07T13:18:04.487Z,69.72
2018-05-07T13:19:14.330Z,69.62
2018-05-07T13:20:24.458Z,69.62
2018-05-07T13:21:34.563Z,69.62
2018-05-07T13:22:44.660Z,69.72
2018-05-07T13:23:54.760Z,69.92
2018-05-07T13:25:04.869Z,69.62
2018-05-07T13:26:14.690Z,70.01
2018-05-07T13:27:24.842Z,69.72
2018-05-07T13:28:34.942Z,69.82
2018-05-07T13:29:45.027Z,69.72
2018-05-07T13:30:54.603Z,70.04
2018-05-07T13:32:04.709Z,69.95
2018-05-07T13:33:14.795Z,69.56
2018-05-07T13:34:25.154Z,69.75
2018-05-07T13:35:35.241Z,69.75
2018-05-07T13:36:45.152Z,69.85
2018-05-07T13:37:55.068Z,69.72
2018-05-07T13:39:05.146Z,69.82
2018-05-07T13:40:14.986Z,70.04
2018-05-07T13:41:25.071Z,69.85
2018-05-07T13:42:35.186Z,69.82
2018-05-07T13:43:45.057Z,69.72
2018-05-07T13:44:55.155Z,70.01
2018-05-07T13:46:05.005Z,69.62
2018-05-07T13:47:14.822Z,69.53
2018-05-07T13:48:24.953Z,70.11
2018-05-07T13:49:35.049Z,69.62
2018-05-07T13:50:44.872Z,69.82
2018-05-07T13:51:54.990Z,69.72
2018-05-07T13:53:05.094Z,69.82
2018-05-07T13:54:15.176Z,70.01
2018-05-07T13:55:25.032Z,69.82
2018-05-07T13:56:34.866Z,69.82
2018-05-07T13:57:44.688Z,70.01
2018-05-07T13:58:54.525Z,69.72
2018-05-07T14:00:04.674Z,70.01
2018-05-07T14:01:14.776Z,69.82
2018-05-07T14:02:24.895Z,69.92
2018-05-07T14:03:34.718Z,69.62
2018-05-07T14:04:44.809Z,69.62
2018-05-07T14:05:54.632Z,69.72
2018-05-07T14:07:04.449Z,69.82
2018-05-07T14:08:14.555Z,69.82
2018-05-07T14:09:24.403Z,70.01
2018-05-07T14:10:34.498Z,70.01
2018-05-07T14:11:44.607Z,70.01
2018-05-07T14:12:54.232Z,69.43
2018-05-07T14:14:04.335Z,69.53
2018-05-07T14:15:14.441Z,69.46
2018-05-07T14:16:24.266Z,69.75
2018-05-07T14:17:34.356Z,69.62
2018-05-07T14:18:44.532Z,70.24
2018-05-07T14:19:54.629Z,70.04
2018-05-07T14:21:04.452Z,70.21
2018-05-07T14:22:14.533Z,70.14
2018-05-07T14:23:24.624Z,70.24
2018-05-07T14:24:34.769Z,70.14
2018-05-07T14:25:44.599Z,70.31
2018-05-07T14:26:54.431Z,70.24
2018-05-07T14:28:04.550Z,70.21
2018-05-07T14:29:14.647Z,70.01
2018-05-07T14:30:24.784Z,70.21
2018-05-07T14:31:34.880Z,70.11
2018-05-07T14:32:44.989Z,70.79
2018-05-07T14:33:55.088Z,70.5
2018-05-07T14:35:05.184Z,70.4
2018-05-07T14:36:15.383Z,70.11
2018-05-07T14:37:25.480Z,70.31
2018-05-07T14:38:35.312Z,70.4
2018-05-07T14:39:45.430Z,70.53
2018-05-07T14:40:55.283Z,70.4
2018-05-07T14:42:05.480Z,70.21
2018-05-07T14:43:15.763Z,70.4
2018-05-07T14:44:28.008Z,70.4
2018-05-07T14:45:40.020Z,70.5
2018-05-07T14:46:52.512Z,70.7
2018-05-07T14:48:05.224Z,70.31
2018-05-07T14:49:17.000Z,70.79
2018-05-07T14:50:29.051Z,70.79
2018-05-07T14:51:41.549Z,70.24
2018-05-07T14:52:52.931Z,70.73
2018-05-07T14:54:04.132Z,70.63
2018-05-07T14:55:14.279Z,70.34
2018-05-07T14:56:24.407Z,70.21
2018-05-07T14:57:34.548Z,70.21
2018-05-07T14:58:44.569Z,70.5
2018-05-07T14:59:54.530Z,70.43
2018-05-07T15:01:04.686Z,70.53
2018-05-07T15:02:14.543Z,70.63
2018-05-07T15:03:24.407Z,70.5
2018-05-07T15:04:34.336Z,70.53
2018-05-07T15:05:44.467Z,70.73
2018-05-07T15:06:54.626Z,70.34
2018-05-07T15:08:04.745Z,70.43
2018-05-07T15:09:14.871Z,70.11
2018-05-07T15:10:25.053Z,70.11
2018-05-07T15:11:35.185Z,70.7
2018-05-07T15:12:45.024Z,70.31
2018-05-07T15:13:55.151Z,70.6
2018-05-07T15:15:05.258Z,70.98
2018-05-07T15:16:15.436Z,70.76
2018-05-07T15:17:25.564Z,70.86
2018-05-07T15:18:35.679Z,70.86
2018-05-07T15:19:45.800Z,70.86
2018-05-07T15:20:55.657Z,70.95
2018-05-07T15:22:05.711Z,70.56
2018-05-07T15:23:15.979Z,70.95
2018-05-07T15:24:26.104Z,70.76
2018-05-07T15:25:36.225Z,70.76
2018-05-07T15:26:46.358Z,70.86
2018-05-07T15:27:56.193Z,70.82
2018-05-07T15:29:06.304Z,70.82
2018-05-07T15:30:16.580Z,70.72
2018-05-07T15:31:26.689Z,70.82
2018-05-07T15:32:36.939Z,71.11
2018-05-07T15:33:47.054Z,70.82
2018-05-07T15:34:56.934Z,71.01
2018-05-07T15:36:17.853Z,70.72
2018-05-07T15:37:28.363Z,70.72
2018-05-07T15:38:38.535Z,70.62
2018-05-07T15:39:48.736Z,71.11
2018-05-07T15:40:58.836Z,70.62
2018-05-07T15:42:08.937Z,70.82
2018-05-07T15:43:19.060Z,70.78
2018-05-07T15:44:29.260Z,70.88
2018-05-07T15:45:39.778Z,70.78
2018-05-07T15:46:49.962Z,70.78
2018-05-07T15:48:00.178Z,70.59
2018-05-07T15:49:10.347Z,70.78
2018-05-07T15:50:20.710Z,70.78
2018-05-07T15:51:30.886Z,70.78